Time;durP1;ratioP1;P1;durP2;ratioP2;P2;SDS_P1;SDS_P2;PMS_P1;PMS_P2;Temp;Humidity;BMP_temperature;BMP_pressure;BME280_temperature;BME280_humidity;BME280_pressure;Samples;Min_cycle;Max_cycle;Signal;HPM_P1;HPM_P2
2023/12/04 00:02:19;;;;;;;3.70;1.20;;;;;;;-2.83;100.00;100648.88;104914;1254;74544;-51
2023/12/04 00:04:46;;;;;;;5.80;1.90;;;;;;;-2.85;100.00;100651.46;104601;1254;60399;-52
2023/12/04 00:07:14;;;;;;;3.50;1.60;;;;;;;-2.88;100.00;100656.14;104766;1254;61120;-51
2023/12/04 00:09:41;;;;;;;2.70;1.70;;;;;;;-2.91;100.00;100657.84;104632;1256;73105;-52
2023/12/04 00:12:09;;;;;;;4.20;1.60;;;;;;;-2.95;100.00;100663.55;104749;1254;69242;-52
2023/12/04 00:14:36;;;;;;;6.10;2.00;;;;;;;-3.00;100.00;100660.64;104446;1259;72646;-50
2023/12/04 00:17:04;;;;;;;6.80;2.20;;;;;;;-3.07;100.00;100664.18;104670;1254;62077;-53
2023/12/04 00:19:31;;;;;;;4.00;1.30;;;;;;;-3.14;100.00;100661.59;104548;1256;60348;-51
2023/12/04 00:21:59;;;;;;;3.80;1.60;;;;;;;-3.19;100.00;100668.16;104672;1257;74346;-52
2023/12/04 00:24:26;;;;;;;3.60;1.50;;;;;;;-3.25;100.00;100666.61;104838;1256;66017;-50
2023/12/04 00:26:54;;;;;;;3.70;1.90;;;;;;;-3.30;100.00;100666.84;106949;1253;72346;-51
2023/12/04 00:29:22;;;;;;;4.50;1.60;;;;;;;-3.34;100.00;100668.89;104712;1253;60614;-52
2023/12/04 00:31:49;;;;;;;4.30;2.50;;;;;;;-3.36;100.00;100670.05;104972;1253;61366;-51
2023/12/04 00:34:17;;;;;;;4.30;1.50;;;;;;;-3.37;100.00;100674.42;104799;1254;73847;-51
2023/12/04 00:36:44;;;;;;;3.10;1.60;;;;;;;-3.37;100.00;100675.82;105029;1257;65492;-51
2023/12/04 00:39:12;;;;;;;3.20;1.60;;;;;;;-3.36;100.00;100674.80;104909;1256;72115;-50
2023/12/04 00:41:39;;;;;;;5.00;1.90;;;;;;;-3.35;100.00;100679.20;105191;1253;60913;-51
2023/12/04 00:44:07;;;;;;;5.00;1.90;;;;;;;-3.35;100.00;100681.48;105057;1257;60514;-51
2023/12/04 00:46:34;;;;;;;6.40;2.10;;;;;;;-3.36;100.00;100687.95;105112;1254;73875;-51
2023/12/04 00:49:01;;;;;;;3.00;1.20;;;;;;;-3.37;100.00;100687.39;104901;1257;67034;-50
2023/12/04 00:51:37;;;;;;;4.30;1.90;;;;;;;-3.40;100.00;100682.95;104922;1255;73126;-51
2023/12/04 00:54:05;;;;;;;3.00;1.80;;;;;;;-3.45;100.00;100682.14;104798;1253;60521;-51
2023/12/04 00:56:32;;;;;;;4.40;1.80;;;;;;;-3.49;100.00;100686.77;104818;1253;60512;-51
2023/12/04 00:59:00;;;;;;;4.60;1.50;;;;;;;-3.53;100.00;100685.98;104826;1252;74176;-51
2023/12/04 01:01:28;;;;;;;4.20;2.10;;;;;;;-3.57;100.00;100683.27;104977;1253;65999;-51
2023/12/04 01:03:55;;;;;;;4.90;2.20;;;;;;;-3.61;100.00;100683.16;105564;1256;71449;-50
2023/12/04 01:06:23;;;;;;;3.00;1.60;;;;;;;-3.65;100.00;100687.98;104661;1253;59678;-51
2023/12/04 01:08:53;;;;;;;3.30;1.50;;;;;;;-3.69;100.00;100689.83;104780;1257;62834;-53
2023/12/04 01:11:21;;;;;;;4.40;1.50;;;;;;;-3.69;100.00;100697.02;104659;1259;74147;-51
2023/12/04 01:13:49;;;;;;;4.50;2.00;;;;;;;-3.69;100.00;100694.73;105229;1252;66016;-51
2023/12/04 01:16:17;;;;;;;4.80;2.20;;;;;;;-3.71;100.00;100698.90;104808;1257;72715;-51
2023/12/04 01:18:44;;;;;;;5.50;2.20;;;;;;;-3.70;100.00;100704.34;104879;1253;60361;-51
2023/12/04 01:21:12;;;;;;;3.70;1.90;;;;;;;-3.69;100.00;100704.56;104645;1256;60588;-51
2023/12/04 01:23:39;;;;;;;5.50;2.70;;;;;;;-3.69;100.00;100704.56;104770;1254;72411;-51
2023/12/04 01:26:07;;;;;;;2.90;2.00;;;;;;;-3.69;100.00;100705.44;104823;1252;65581;-50
2023/12/04 01:28:34;;;;;;;6.50;2.30;;;;;;;-3.68;100.00;100707.21;104737;1253;71433;-52
2023/12/04 01:31:02;;;;;;;4.00;2.20;;;;;;;-3.67;100.00;100709.16;104783;1254;60531;-51
2023/12/04 01:33:30;;;;;;;4.80;2.30;;;;;;;-3.67;100.00;100711.80;104898;1256;60442;-52
2023/12/04 01:35:57;;;;;;;4.80;2.50;;;;;;;-3.68;100.00;100719.51;105440;1257;72296;-53
2023/12/04 01:38:25;;;;;;;2.40;1.60;;;;;;;-3.68;100.00;100718.61;104898;1253;65746;-51
2023/12/04 01:40:52;;;;;;;2.90;2.00;;;;;;;-3.70;100.00;100721.02;104961;1257;71279;-51
2023/12/04 01:43:20;;;;;;;4.60;2.20;;;;;;;-3.72;100.00;100721.48;105020;1253;60376;-51
2023/12/04 01:45:47;;;;;;;4.80;2.50;;;;;;;-3.74;100.00;100720.39;104780;1253;60516;-52
2023/12/04 01:48:15;;;;;;;4.30;2.00;;;;;;;-3.76;100.00;100718.77;104700;1253;73832;-51
2023/12/04 01:50:43;;;;;;;3.70;1.60;;;;;;;-3.79;100.00;100722.89;105368;1257;65691;-53
2023/12/04 01:53:10;;;;;;;3.00;1.70;;;;;;;-3.81;100.00;100731.44;104821;1254;70451;-51
2023/12/04 01:55:38;;;;;;;4.50;2.10;;;;;;;-3.82;100.00;100729.84;104652;1254;60524;-51
2023/12/04 01:58:05;;;;;;;4.70;2.10;;;;;;;-3.80;100.00;100733.39;104627;1253;60514;-52
2023/12/04 02:00:33;;;;;;;3.80;2.10;;;;;;;-3.78;100.00;100732.58;104522;1256;72652;-52
2023/12/04 02:03:00;;;;;;;3.10;1.70;;;;;;;-3.74;100.00;100737.93;104959;1253;65684;-52
2023/12/04 02:05:28;;;;;;;5.20;1.90;;;;;;;-3.69;100.00;100736.48;104704;1256;71085;-51
2023/12/04 02:07:55;;;;;;;5.30;2.30;;;;;;;-3.65;100.00;100737.97;104739;1253;60431;-52
2023/12/04 02:10:23;;;;;;;4.30;2.10;;;;;;;-3.60;100.00;100744.41;104816;1257;60467;-53
2023/12/04 02:12:50;;;;;;;8.00;3.20;;;;;;;-3.56;100.00;100745.21;104829;1257;72610;-51
2023/12/04 02:15:18;;;;;;;4.20;2.50;;;;;;;-3.51;100.00;100745.86;104795;1252;65523;-53
2023/12/04 02:17:45;;;;;;;4.90;1.90;;;;;;;-3.46;100.00;100754.42;104927;1259;73127;-52
2023/12/04 02:20:14;;;;;;;5.70;2.80;;;;;;;-3.42;100.00;100759.24;104845;1259;61286;-52
2023/12/04 02:22:41;;;;;;;4.50;2.20;;;;;;;-3.41;100.00;100758.39;105050;1253;60450;-52
2023/12/04 02:25:09;;;;;;;6.60;2.50;;;;;;;-3.39;100.00;100759.82;104686;1257;73827;-50
2023/12/04 02:27:59;;;;;;;5.70;2.70;;;;;;;-3.38;100.00;100763.89;107729;1253;66857;-51
2023/12/04 02:30:28;;;;;;;5.60;3.10;;;;;;;-3.38;100.00;100764.77;104752;1254;71512;-50
2023/12/04 02:32:57;;;;;;;6.70;3.50;;;;;;;-3.39;100.00;100764.04;107512;1253;60510;-52
2023/12/04 02:35:26;;;;;;;6.30;3.10;;;;;;;-3.41;100.00;100763.30;104902;1259;61073;-51
2023/12/04 02:37:53;;;;;;;3.90;2.30;;;;;;;-3.44;100.00;100762.02;108657;1252;72635;-50
2023/12/04 02:40:21;;;;;;;3.90;1.80;;;;;;;-3.49;100.00;100759.44;104820;1253;65779;-51
2023/12/04 02:42:48;;;;;;;2.40;1.40;;;;;;;-3.53;100.00;100758.10;104622;1256;73289;-50
2023/12/04 02:45:16;;;;;;;3.20;1.80;;;;;;;-3.57;100.00;100757.98;104943;1253;60553;-50
2023/12/04 02:47:43;;;;;;;4.00;2.30;;;;;;;-3.60;100.00;100758.11;104933;1253;60425;-50
2023/12/04 02:50:11;;;;;;;4.10;1.60;;;;;;;-3.62;100.00;100761.74;104807;1253;74057;-50
2023/12/04 02:52:38;;;;;;;3.20;1.20;;;;;;;-3.62;100.00;100768.22;104863;1256;65900;-51
2023/12/04 02:55:06;;;;;;;3.40;1.90;;;;;;;-3.63;100.00;100766.98;104796;1256;72638;-50
2023/12/04 02:57:34;;;;;;;3.10;1.40;;;;;;;-3.63;100.00;100769.77;105693;1254;60678;-50
2023/12/04 03:00:02;;;;;;;3.90;1.90;;;;;;;-3.64;100.00;100768.69;104858;1252;60358;-52
2023/12/04 03:02:29;;;;;;;3.90;1.80;;;;;;;-3.64;100.00;100766.95;104883;1259;71983;-52
2023/12/04 03:04:57;;;;;;;2.60;1.30;;;;;;;-3.62;100.00;100772.77;104661;1259;67026;-51
2023/12/04 03:07:26;;;;;;;3.80;2.10;;;;;;;-3.61;100.00;100774.21;104722;1253;72781;-52
2023/12/04 03:09:54;;;;;;;3.40;2.20;;;;;;;-3.61;100.00;100776.86;105149;1255;60541;-51
2023/12/04 03:12:21;;;;;;;3.40;2.10;;;;;;;-3.59;100.00;100779.19;105016;1253;60551;-50
2023/12/04 03:14:48;;;;;;;3.70;2.30;;;;;;;-3.57;100.00;100781.14;104750;1253;73843;-52
2023/12/04 03:17:16;;;;;;;5.00;3.00;;;;;;;-3.56;100.00;100786.26;104746;1253;67758;-50
2023/12/04 03:19:43;;;;;;;6.90;4.10;;;;;;;-3.56;100.00;100792.58;104907;1258;73100;-51
2023/12/04 03:22:12;;;;;;;6.90;3.80;;;;;;;-3.55;100.00;100798.39;104591;1257;60740;-50
2023/12/04 03:24:39;;;;;;;4.40;2.90;;;;;;;-3.55;100.00;100804.02;104859;1252;60471;-50
2023/12/04 03:27:07;;;;;;;4.40;2.20;;;;;;;-3.57;100.00;100802.57;104723;1257;73889;-51
2023/12/04 03:29:34;;;;;;;6.60;3.00;;;;;;;-3.60;100.00;100804.42;104938;1253;65655;-51
2023/12/04 03:32:02;;;;;;;6.20;3.40;;;;;;;-3.62;100.00;100805.77;105021;1257;72647;-52
2023/12/04 03:34:29;;;;;;;4.70;2.80;;;;;;;-3.66;100.00;100803.40;104986;1253;62188;-52
2023/12/04 03:36:56;;;;;;;3.40;1.80;;;;;;;-3.67;100.00;100808.64;104638;1259;60948;-51
2023/12/04 03:39:24;;;;;;;5.60;2.40;;;;;;;-3.69;100.00;100810.87;104972;1253;72637;-52
2023/12/04 03:41:51;;;;;;;4.40;2.70;;;;;;;-3.71;100.00;100808.88;104853;1257;65629;-50
2023/12/04 03:44:19;;;;;;;3.90;2.30;;;;;;;-3.74;100.00;100812.13;104829;1258;72746;-52
2023/12/04 03:46:46;;;;;;;4.00;2.50;;;;;;;-3.78;100.00;100812.91;104994;1254;60487;-52
2023/12/04 03:49:13;;;;;;;3.30;2.60;;;;;;;-3.80;100.00;100815.13;105014;1253;60941;-52
2023/12/04 03:51:41;;;;;;;4.40;2.50;;;;;;;-3.83;100.00;100823.30;104900;1252;74218;-52
2023/12/04 03:54:08;;;;;;;7.50;3.10;;;;;;;-3.86;100.00;100826.92;104936;1253;67191;-51
2023/12/04 03:56:36;;;;;;;4.80;2.20;;;;;;;-3.88;100.00;100830.52;104895;1257;72695;-52
2023/12/04 03:59:03;;;;;;;8.30;4.10;;;;;;;-3.91;100.00;100833.77;104852;1253;60728;-50
2023/12/04 04:01:31;;;;;;;6.70;3.40;;;;;;;-3.93;100.00;100835.49;104877;1258;60526;-51
2023/12/04 04:03:58;;;;;;;5.00;3.20;;;;;;;-3.95;100.00;100836.82;104813;1253;72626;-51
2023/12/04 04:06:25;;;;;;;4.80;3.20;;;;;;;-3.98;100.00;100841.30;104970;1256;66618;-51
2023/12/04 04:08:53;;;;;;;6.10;3.70;;;;;;;-4.03;100.00;100838.02;104891;1253;71422;-52
2023/12/04 04:11:20;;;;;;;7.30;3.30;;;;;;;-4.08;100.00;100838.76;104693;1253;60543;-49
2023/12/04 04:13:48;;;;;;;7.40;3.60;;;;;;;-4.12;100.00;100836.36;104806;1253;60540;-50
2023/12/04 04:16:16;;;;;;;6.80;3.90;;;;;;;-4.17;100.00;100835.16;105019;1253;72787;-51
2023/12/04 04:18:43;;;;;;;6.60;3.80;;;;;;;-4.23;100.00;100834.27;105188;1257;67489;-51
2023/12/04 04:21:11;;;;;;;6.00;3.30;;;;;;;-4.28;100.00;100831.51;105351;1257;71441;-51
2023/12/04 04:23:38;;;;;;;6.40;3.20;;;;;;;-4.33;100.00;100830.48;104981;1253;60537;-52
2023/12/04 04:26:06;;;;;;;2.60;2.00;;;;;;;-4.36;100.00;100835.84;104840;1257;60345;-51
2023/12/04 04:28:34;;;;;;;4.30;2.90;;;;;;;-4.40;100.00;100840.11;107260;1256;74189;-51
2023/12/04 04:31:01;;;;;;;7.40;2.60;;;;;;;-4.43;100.00;100841.95;104652;1257;67480;-51
2023/12/04 04:33:29;;;;;;;4.70;2.20;;;;;;;-4.42;100.00;100848.29;104839;1256;70657;-51
2023/12/04 04:35:56;;;;;;;4.70;2.30;;;;;;;-4.40;100.00;100853.95;104741;1253;60832;-51
2023/12/04 04:38:24;;;;;;;4.70;1.60;;;;;;;-4.36;100.00;100860.40;104886;1256;63756;-50
2023/12/04 04:40:52;;;;;;;4.30;2.00;;;;;;;-4.31;100.00;100863.14;104689;1253;73922;-50
2023/12/04 04:43:20;;;;;;;9.40;3.80;;;;;;;-4.28;100.00;100867.98;105136;1253;67512;-53
2023/12/04 04:45:47;;;;;;;8.90;4.60;;;;;;;-4.24;100.00;100873.70;104888;1257;72717;-50
2023/12/04 04:48:15;;;;;;;6.00;3.10;;;;;;;-4.18;100.00;100881.23;104965;1253;61454;-51
2023/12/04 04:50:42;;;;;;;10.00;5.00;;;;;;;-4.14;100.00;100889.77;104793;1258;60445;-50
2023/12/04 04:53:09;;;;;;;14.10;5.10;;;;;;;-4.08;100.00;100893.27;104946;1253;72658;-52
2023/12/04 04:55:37;;;;;;;11.60;4.80;;;;;;;-4.04;100.00;100890.92;104943;1255;68295;-53
2023/12/04 04:58:16;;;;;;;10.50;4.30;;;;;;;-4.03;100.00;100891.85;108973;1252;72426;-52
2023/12/04 05:00:44;;;;;;;7.30;4.10;;;;;;;-4.00;100.00;100889.13;109205;1253;58289;-51
2023/12/04 05:03:12;;;;;;;8.30;3.80;;;;;;;-3.97;100.00;100890.41;109138;1253;60094;-52
2023/12/04 05:05:39;;;;;;;7.60;4.40;;;;;;;-3.95;100.00;100893.82;105072;1253;73899;-50
2023/12/04 05:08:07;;;;;;;4.60;3.00;;;;;;;-3.93;100.00;100897.73;104702;1257;64899;-52
2023/12/04 05:10:34;;;;;;;6.90;3.70;;;;;;;-3.91;100.00;100904.09;104770;1253;72889;-51
2023/12/04 05:13:02;;;;;;;8.40;3.50;;;;;;;-3.87;100.00;100910.52;104954;1259;60449;-51
2023/12/04 05:15:29;;;;;;;6.50;3.00;;;;;;;-3.82;100.00;100905.40;104909;1253;60417;-51
2023/12/04 05:17:57;;;;;;;5.80;2.80;;;;;;;-3.78;100.00;100912.35;104845;1254;74104;-51
2023/12/04 05:20:25;;;;;;;5.50;3.30;;;;;;;-3.74;100.00;100914.75;104946;1253;66416;-50
2023/12/04 05:22:52;;;;;;;3.90;2.30;;;;;;;-3.68;100.00;100919.99;104871;1253;72983;-50
2023/12/04 05:25:20;;;;;;;3.50;2.60;;;;;;;-3.64;100.00;100920.80;104610;1257;63255;-51
2023/12/04 05:27:47;;;;;;;3.80;2.50;;;;;;;-3.58;100.00;100922.72;104842;1257;60453;-50
2023/12/04 05:30:16;;;;;;;3.40;1.90;;;;;;;-3.53;100.00;100919.34;109021;1252;73404;-52
2023/12/04 05:32:44;;;;;;;3.80;2.00;;;;;;;-3.49;100.00;100916.31;109162;1257;67520;-52
2023/12/04 05:35:11;;;;;;;3.10;1.80;;;;;;;-3.42;100.00;100920.69;109063;1253;74185;-51
2023/12/04 05:37:39;;;;;;;3.40;1.60;;;;;;;-3.36;100.00;100916.98;105748;1253;61530;-51
2023/12/04 05:40:07;;;;;;;4.40;2.00;;;;;;;-3.31;100.00;100922.92;104551;1253;60459;-52
2023/12/04 05:42:36;;;;;;;2.90;2.10;;;;;;;-3.26;100.00;100920.95;104740;1256;71289;-51
2023/12/04 05:45:04;;;;;;;5.30;2.90;;;;;;;-3.21;100.00;100930.90;107291;1253;65827;-51
2023/12/04 05:47:31;;;;;;;5.50;3.00;;;;;;;-3.18;100.00;100932.21;105617;1257;72682;-50
2023/12/04 05:49:59;;;;;;;6.50;3.40;;;;;;;-3.16;100.00;100931.02;104904;1257;60381;-50
2023/12/04 05:52:26;;;;;;;5.00;2.80;;;;;;;-3.14;100.00;100928.43;104933;1252;62296;-51
2023/12/04 05:54:54;;;;;;;4.30;2.30;;;;;;;-3.13;100.00;100924.08;104987;1259;73837;-51
2023/12/04 05:57:21;;;;;;;4.50;2.60;;;;;;;-3.14;100.00;100928.97;104940;1253;66789;-50
2023/12/04 05:59:48;;;;;;;5.20;2.50;;;;;;;-3.16;100.00;100928.77;104946;1253;72731;-51
2023/12/04 06:02:16;;;;;;;6.00;2.90;;;;;;;-3.16;100.00;100934.90;104902;1253;60469;-50
2023/12/04 06:04:43;;;;;;;6.50;2.70;;;;;;;-3.15;100.00;100939.13;104893;1253;60588;-52
2023/12/04 06:07:11;;;;;;;5.10;2.70;;;;;;;-3.15;100.00;100935.27;104923;1259;73828;-51
2023/12/04 06:09:39;;;;;;;6.60;3.30;;;;;;;-3.14;100.00;100934.23;105037;1253;67067;-51
2023/12/04 06:12:08;;;;;;;8.00;4.00;;;;;;;-3.12;100.00;100936.42;104942;1257;71173;-50
2023/12/04 06:14:36;;;;;;;5.80;3.30;;;;;;;-3.09;100.00;100934.38;105034;1254;60870;-51
2023/12/04 06:17:06;;;;;;;7.20;3.40;;;;;;;-3.07;100.00;100936.73;106000;1256;60476;-52
2023/12/04 06:19:33;;;;;;;9.80;3.90;;;;;;;-3.04;100.00;100938.19;104920;1253;73001;-50
2023/12/04 06:22:01;;;;;;;9.60;5.00;;;;;;;-3.00;100.00;100940.92;104923;1259;65512;-50
2023/12/04 06:24:29;;;;;;;10.70;4.90;;;;;;;-2.96;100.00;100941.89;104901;1253;70201;-50
2023/12/04 06:26:57;;;;;;;8.30;4.40;;;;;;;-2.91;100.00;100940.09;105119;1255;60891;-51
2023/12/04 06:29:25;;;;;;;8.20;5.50;;;;;;;-2.86;100.00;100942.68;105026;1253;60533;-51
2023/12/04 06:31:53;;;;;;;10.30;5.80;;;;;;;-2.81;100.00;100946.86;105161;1253;72625;-50
2023/12/04 06:34:21;;;;;;;10.50;6.50;;;;;;;-2.77;100.00;100948.33;104954;1254;64876;-50
2023/12/04 06:36:49;;;;;;;14.30;7.50;;;;;;;-2.74;100.00;100953.16;105070;1257;72705;-50
2023/12/04 06:39:17;;;;;;;13.40;6.90;;;;;;;-2.70;100.00;100956.59;107989;1253;59439;-51
2023/12/04 06:41:46;;;;;;;13.10;6.60;;;;;;;-2.65;100.00;100962.52;105017;1257;60427;-51
2023/12/04 06:44:14;;;;;;;15.50;7.40;;;;;;;-2.61;100.00;100965.05;105949;1257;73904;-52
2023/12/04 06:46:41;;;;;;;11.10;5.90;;;;;;;-2.58;100.00;100966.20;105174;1257;66927;-51
2023/12/04 06:49:09;;;;;;;10.80;5.80;;;;;;;-2.55;100.00;100966.79;104903;1253;72732;-51
2023/12/04 06:51:37;;;;;;;12.80;6.70;;;;;;;-2.54;100.00;100966.81;106375;1257;60700;-50
2023/12/04 06:54:04;;;;;;;12.40;7.00;;;;;;;-2.51;100.00;100976.37;106095;1253;60435;-50
2023/12/04 06:56:32;;;;;;;11.80;7.30;;;;;;;-2.49;100.00;100976.42;104903;1259;75502;-50
2023/12/04 06:58:59;;;;;;;12.30;6.80;;;;;;;-2.48;100.00;100976.65;104923;1253;65960;-51
2023/12/04 07:01:27;;;;;;;13.40;7.10;;;;;;;-2.45;100.00;100979.84;105197;1252;72689;-50
2023/12/04 07:03:55;;;;;;;13.10;6.80;;;;;;;-2.43;100.00;100982.73;106000;1253;60515;-51
2023/12/04 07:06:22;;;;;;;17.10;7.60;;;;;;;-2.41;100.00;100989.99;104940;1253;60643;-52
2023/12/04 07:08:50;;;;;;;16.20;8.00;;;;;;;-2.39;100.00;100987.23;104739;1253;72034;-51
2023/12/04 07:11:18;;;;;;;14.00;7.60;;;;;;;-2.35;100.00;100986.77;105759;1253;66311;-52
2023/12/04 07:13:45;;;;;;;12.20;6.50;;;;;;;-2.30;100.00;100986.71;104910;1253;73113;-52
2023/12/04 07:16:13;;;;;;;10.90;6.90;;;;;;;-2.25;100.00;100986.29;105194;1254;60662;-51
2023/12/04 07:18:40;;;;;;;15.90;8.00;;;;;;;-2.21;100.00;100986.57;106018;1253;60409;-51
2023/12/04 07:21:08;;;;;;;13.20;7.20;;;;;;;-2.15;100.00;100992.70;105462;1253;71444;-50
2023/12/04 07:23:35;;;;;;;10.50;6.60;;;;;;;-2.09;100.00;100992.48;104921;1257;64650;-52
2023/12/04 07:26:03;;;;;;;15.20;6.60;;;;;;;-2.03;100.00;100994.19;105095;1253;71472;-51
2023/12/04 07:28:31;;;;;;;13.20;7.20;;;;;;;-1.98;100.00;100993.95;105023;1253;60985;-52
2023/12/04 07:30:58;;;;;;;13.10;6.40;;;;;;;-1.93;100.00;100993.17;104715;1259;60342;-50
2023/12/04 07:33:26;;;;;;;11.60;6.00;;;;;;;-1.87;100.00;100998.59;105432;1253;72592;-51
2023/12/04 07:35:53;;;;;;;13.90;6.50;;;;;;;-1.83;100.00;100998.16;107269;1253;65787;-51
2023/12/04 07:38:21;;;;;;;13.70;7.40;;;;;;;-1.78;100.00;100998.27;105050;1259;73172;-51
2023/12/04 07:40:50;;;;;;;14.00;6.70;;;;;;;-1.73;100.00;100999.60;105097;1253;60437;-50
2023/12/04 07:43:17;;;;;;;17.80;7.70;;;;;;;-1.69;100.00;100999.51;105068;1253;60540;-50
2023/12/04 07:45:45;;;;;;;12.70;7.20;;;;;;;-1.65;100.00;101003.98;109133;1253;74114;-52
2023/12/04 07:48:13;;;;;;;12.70;6.90;;;;;;;-1.63;100.00;101008.43;108149;1257;67396;-52
2023/12/04 07:50:41;;;;;;;15.00;7.10;;;;;;;-1.60;100.00;101011.64;105063;1253;71225;-51
2023/12/04 07:53:09;;;;;;;15.60;8.30;;;;;;;-1.57;100.00;101016.66;104873;1256;60935;-51
2023/12/04 07:55:37;;;;;;;16.20;8.50;;;;;;;-1.52;100.00;101023.25;109225;1253;60463;-52
2023/12/04 07:58:04;;;;;;;15.50;7.70;;;;;;;-1.49;100.00;101030.73;105830;1254;73927;-50
2023/12/04 08:00:32;;;;;;;14.10;7.20;;;;;;;-1.44;100.00;101031.33;109145;1253;65528;-51
2023/12/04 08:03:00;;;;;;;12.80;7.40;;;;;;;-1.40;100.00;101030.55;109108;1252;71447;-51
2023/12/04 08:05:28;;;;;;;12.40;7.40;;;;;;;-1.36;100.00;101030.81;108964;1253;61496;-51
2023/12/04 08:07:55;;;;;;;17.70;8.90;;;;;;;-1.33;100.00;101030.33;109096;1253;58839;-52
2023/12/04 08:10:22;;;;;;;14.70;8.60;;;;;;;-1.29;100.00;101033.77;108586;1259;72659;-51
2023/12/04 08:12:50;;;;;;;15.70;7.50;;;;;;;-1.23;100.00;101036.70;104884;1256;65644;-51
2023/12/04 08:15:17;;;;;;;14.90;8.50;;;;;;;-1.19;100.00;101038.52;109094;1253;70348;-51
2023/12/04 08:17:45;;;;;;;13.80;9.00;;;;;;;-1.16;100.00;101043.19;105448;1256;60530;-51
2023/12/04 08:20:13;;;;;;;15.80;8.60;;;;;;;-1.13;100.00;101044.13;109057;1252;60165;-51
2023/12/04 08:25:38;;;;;;;19.50;10.60;;;;;;;-1.05;100.00;101132.36;101755;1297;600370;-51
2023/12/04 08:28:08;;;;;;;18.00;10.20;;;;;;;-1.04;100.00;101143.83;104909;1259;60345;-51
2023/12/04 08:30:36;;;;;;;19.90;11.80;;;;;;;-1.04;100.00;101132.91;108798;1261;58834;-50
2023/12/04 08:33:04;;;;;;;18.30;10.60;;;;;;;-1.04;100.00;101126.23;104793;1262;72299;-51
2023/12/04 08:35:32;;;;;;;18.40;9.80;;;;;;;-1.03;100.00;101124.66;104759;1260;67388;-49
2023/12/04 08:37:59;;;;;;;19.60;10.60;;;;;;;-1.02;100.00;101119.73;104954;1257;71778;-50
2023/12/04 08:40:27;;;;;;;19.40;10.60;;;;;;;-1.00;100.00;101110.95;102093;1257;60371;-50
2023/12/04 08:42:54;;;;;;;20.90;12.00;;;;;;;-0.98;100.00;101105.54;104720;1258;72313;-50
2023/12/04 08:45:22;;;;;;;19.90;11.90;;;;;;;-0.96;100.00;101102.24;104717;1259;68098;-50
2023/12/04 08:47:49;;;;;;;22.70;11.90;;;;;;;-0.94;100.00;101101.06;105024;1252;71413;-51
2023/12/04 08:50:17;;;;;;;20.50;12.60;;;;;;;-0.92;100.00;101097.02;105027;1253;60358;-50
2023/12/04 08:52:44;;;;;;;23.60;12.30;;;;;;;-0.90;100.00;101099.02;104865;1253;60480;-50
2023/12/04 08:55:12;;;;;;;21.90;12.60;;;;;;;-0.86;100.00;101098.58;105638;1253;73037;-50
2023/12/04 08:57:40;;;;;;;20.10;11.70;;;;;;;-0.84;100.00;101096.13;104884;1256;67528;-52
2023/12/04 09:00:08;;;;;;;21.40;12.10;;;;;;;-0.80;100.00;101092.33;104706;1259;71202;-53
2023/12/04 09:02:36;;;;;;;18.60;11.60;;;;;;;-0.76;100.00;101090.29;104828;1258;59765;-52
2023/12/04 09:05:15;;;;;;;21.20;13.30;;;;;;;-0.73;100.00;101094.92;105330;1259;59622;-52
2023/12/04 09:07:42;;;;;;;20.60;12.80;;;;;;;-0.71;100.00;101090.38;104683;1258;73542;-52
2023/12/04 09:10:30;;;;;;;19.80;12.50;;;;;;;-0.70;100.00;101102.22;104947;1258;67064;-50
2023/12/04 09:13:17;;;;;;;21.00;12.20;;;;;;;-0.69;100.00;101102.77;104781;1260;72630;-51
2023/12/04 09:15:45;;;;;;;20.70;12.20;;;;;;;-0.70;100.00;101096.21;104861;1254;59700;-49
2023/12/04 09:18:12;;;;;;;17.30;10.30;;;;;;;-0.72;100.00;101097.60;104787;1261;59551;-50
2023/12/04 09:20:41;;;;;;;21.00;12.50;;;;;;;-0.73;100.00;101089.81;104828;1259;72225;-50
2023/12/04 09:23:09;;;;;;;17.40;11.30;;;;;;;-0.75;100.00;101085.54;104842;1259;65964;-50
2023/12/04 09:25:37;;;;;;;18.80;11.40;;;;;;;-0.77;100.00;101090.45;104818;1255;73021;-50
2023/12/04 09:32:15;;;;;;;5.60;3.60;;;;;;;-0.82;100.00;101179.34;101427;1291;600932;-50
2023/12/04 09:34:42;;;;;;;7.20;3.50;;;;;;;-0.88;100.00;101204.80;103843;1267;59324;-53
2023/12/04 09:37:10;;;;;;;4.10;2.60;;;;;;;-0.93;100.00;101191.82;103875;1266;59947;-52
2023/12/04 09:39:39;;;;;;;2.60;2.10;;;;;;;-1.00;100.00;101186.38;103912;1272;71547;-52
2023/12/04 09:42:07;;;;;;;3.30;2.30;;;;;;;-1.06;100.00;101177.27;108175;1266;67049;-53
2023/12/04 09:44:36;;;;;;;2.60;1.80;;;;;;;-1.12;100.00;101174.34;108228;1266;71446;-52
2023/12/04 09:47:03;;;;;;;3.30;1.40;;;;;;;-1.17;100.00;101170.14;105882;1263;3436521;-52
2023/12/04 09:49:31;;;;;;;3.70;1.30;;;;;;;-1.19;100.00;101163.23;105001;1263;59241;-52
2023/12/04 09:51:59;;;;;;;1.70;1.00;;;;;;;-1.20;100.00;101160.08;104577;1264;70659;-51
2023/12/04 09:54:26;;;;;;;3.00;1.50;;;;;;;-1.18;100.00;101154.63;104205;1264;65770;-52
2023/12/04 09:56:55;;;;;;;2.20;1.20;;;;;;;-1.15;100.00;101150.31;104282;1266;71457;-53
2023/12/04 09:59:25;;;;;;;2.50;1.30;;;;;;;-1.11;100.00;101149.51;105295;1266;59770;-51
2023/12/04 10:01:53;;;;;;;2.50;1.90;;;;;;;-1.09;100.00;101146.90;104231;1263;59710;-49
2023/12/04 10:04:21;;;;;;;2.30;1.50;;;;;;;-1.05;100.00;101145.58;104625;1268;73097;-52
2023/12/04 10:06:50;;;;;;;3.80;1.80;;;;;;;-1.03;100.00;101144.73;105807;1267;68933;-50
2023/12/04 10:09:18;;;;;;;2.20;0.90;;;;;;;-1.01;100.00;101142.30;104274;1269;74739;-50
2023/12/04 10:11:46;;;;;;;2.30;1.10;;;;;;;-1.00;100.00;101135.09;104699;1269;59905;-50
2023/12/04 10:14:15;;;;;;;2.10;1.00;;;;;;;-1.00;100.00;101134.75;104227;1266;60085;-50
2023/12/04 10:16:43;;;;;;;1.70;0.90;;;;;;;-0.98;100.00;101131.63;104892;1269;71065;-50
2023/12/04 10:19:27;;;;;;;1.30;1.00;;;;;;;-0.97;100.00;101128.82;104370;1269;65867;-51
2023/12/04 10:21:58;;;;;;;2.10;1.00;;;;;;;-0.96;100.00;101132.55;108334;1268;72714;-52
2023/12/04 10:24:35;;;;;;;1.60;1.10;;;;;;;-0.97;100.00;101130.43;104543;1266;59757;-50
2023/12/04 10:27:08;;;;;;;2.00;1.10;;;;;;;-0.97;100.00;101126.71;104921;1268;60118;-51
2023/12/04 10:29:47;;;;;;;3.10;1.60;;;;;;;-0.97;100.00;101125.67;105159;1264;73092;-52
2023/12/04 10:32:24;;;;;;;1.60;1.10;;;;;;;-0.93;100.00;101119.73;105533;1268;65657;-51
2023/12/04 10:34:51;;;;;;;3.30;1.70;;;;;;;-0.91;100.00;101118.55;105413;1263;70797;-50
2023/12/04 10:37:19;;;;;;;3.30;1.60;;;;;;;-0.91;100.00;101115.02;103999;1269;59618;-51
2023/12/04 10:39:51;;;;;;;4.10;1.90;;;;;;;-0.90;100.00;101120.50;104678;1264;59866;-51
2023/12/04 10:42:29;;;;;;;3.10;1.10;;;;;;;-0.88;100.00;101123.02;105267;1258;73666;-51
2023/12/04 10:44:57;;;;;;;2.30;1.20;;;;;;;-0.87;100.00;101122.52;104799;1262;67198;-49
2023/12/04 10:47:25;;;;;;;3.20;1.30;;;;;;;-0.88;100.00;101120.04;105045;1260;72453;-49
2023/12/04 10:49:53;;;;;;;2.60;1.50;;;;;;;-0.90;100.00;101118.40;104551;1261;59741;-52
2023/12/04 10:52:21;;;;;;;1.80;1.20;;;;;;;-0.91;100.00;101121.36;104595;1262;59631;-49
2023/12/04 10:54:49;;;;;;;3.50;1.00;;;;;;;-0.91;100.00;101123.30;104948;1264;75249;-50
2023/12/04 10:57:22;;;;;;;1.40;1.00;;;;;;;-0.89;100.00;101123.88;104774;1263;69027;-50
2023/12/04 10:59:49;;;;;;;1.90;1.30;;;;;;;-0.87;100.00;101129.58;106136;1259;72592;-50
2023/12/04 11:02:21;;;;;;;3.00;1.40;;;;;;;-0.85;100.00;101127.31;104226;1259;60430;-51
2023/12/04 11:05:00;;;;;;;3.00;1.30;;;;;;;-0.83;100.00;101122.92;105372;1263;59331;-52
2023/12/04 11:07:28;;;;;;;2.00;0.90;;;;;;;-0.83;100.00;101128.77;104302;1260;71744;-52
2023/12/04 11:09:55;;;;;;;2.50;1.20;;;;;;;-0.83;100.00;101123.48;104510;1259;65831;-51
2023/12/04 11:12:23;;;;;;;2.10;1.20;;;;;;;-0.83;100.00;101128.59;105039;1260;72702;-50
2023/12/04 11:14:54;;;;;;;2.60;1.00;;;;;;;-0.83;100.00;101128.41;104679;1262;59643;-51
2023/12/04 11:17:21;;;;;;;1.60;1.10;;;;;;;-0.83;100.00;101129.29;104763;1263;59634;-50
2023/12/04 11:20:00;;;;;;;3.00;1.40;;;;;;;-0.85;100.00;101129.94;104620;1260;71918;-51